Time;durP1;ratioP1;P1;durP2;ratioP2;P2;SDS_P1;SDS_P2;PMS_P1;PMS_P2;Temp;Humidity;BMP_temperature;BMP_pressure;BME280_temperature;BME280_humidity;BME280_pressure;Samples;Min_cycle;Max_cycle;Signal;HPM_P1;HPM_P2
2022/10/31 00:00:16;;;;;;;3.70;1.53;;;;;;;;;;5050469;28;20291;-78
2022/10/31 00:02:43;;;;;;;3.37;1.80;;;;;;;;;;5050897;28;20210;-78
2022/10/31 00:05:12;;;;;;;3.80;1.87;;;;;;;;;;5048917;28;20209;-78
2022/10/31 00:07:39;;;;;;;1.63;1.53;;;;;;;;;;5050042;28;20198;-78
2022/10/31 00:10:07;;;;;;;1.33;1.23;;;;;;;;;;5049159;28;20198;-78
2022/10/31 00:12:35;;;;;;;1.97;1.67;;;;;;;;;;5049515;28;20197;-78
2022/10/31 00:15:02;;;;;;;2.40;1.97;;;;;;;;;;5049132;28;20212;-78
2022/10/31 00:17:29;;;;;;;2.47;1.83;;;;;;;;;;5049054;28;20209;-78
2022/10/31 00:19:56;;;;;;;1.70;1.40;;;;;;;;;;5032875;28;20201;-79
2022/10/31 00:22:25;;;;;;;1.83;1.50;;;;;;;;;;5051849;28;20201;-78
2022/10/31 00:24:52;;;;;;;3.00;1.50;;;;;;;;;;5053797;28;20208;-78
2022/10/31 00:27:18;;;;;;;1.30;1.20;;;;;;;;;;5052541;28;20220;-78
2022/10/31 00:29:45;;;;;;;3.20;1.90;;;;;;;;;;5053017;28;20240;-78
2022/10/31 00:32:12;;;;;;;1.77;1.67;;;;;;;;;;5053850;28;20240;-78
2022/10/31 00:34:39;;;;;;;3.47;1.40;;;;;;;;;;5052314;28;20205;-78
2022/10/31 00:37:06;;;;;;;2.97;1.60;;;;;;;;;;5053927;28;20650;-78
2022/10/31 00:39:36;;;;;;;2.23;1.73;;;;;;;;;;5053568;28;20202;-78
2022/10/31 00:42:03;;;;;;;2.47;1.60;;;;;;;;;;5053619;28;20248;-78
2022/10/31 00:44:30;;;;;;;1.67;1.50;;;;;;;;;;5053881;28;20206;-78
2022/10/31 00:46:57;;;;;;;3.53;2.50;;;;;;;;;;5053505;28;20621;-78
2022/10/31 00:49:24;;;;;;;2.17;1.30;;;;;;;;;;5053601;28;20208;-78
2022/10/31 00:51:51;;;;;;;1.77;1.23;;;;;;;;;;5052028;28;20739;-78
2022/10/31 00:54:18;;;;;;;2.17;1.60;;;;;;;;;;5085475;28;20278;-78
2022/10/31 00:56:47;;;;;;;1.90;1.57;;;;;;;;;;5052846;28;20225;-78
2022/10/31 00:59:13;;;;;;;3.20;1.93;;;;;;;;;;5038625;28;20210;-78
2022/10/31 01:01:40;;;;;;;3.30;1.83;;;;;;;;;;5052939;28;20267;-78
2022/10/31 01:04:07;;;;;;;2.30;1.57;;;;;;;;;;5053673;28;20607;-78
2022/10/31 01:06:34;;;;;;;2.70;2.00;;;;;;;;;;5052380;28;20224;-78
2022/10/31 01:09:01;;;;;;;2.50;1.70;;;;;;;;;;5053220;28;20202;-78
2022/10/31 01:11:28;;;;;;;3.00;1.60;;;;;;;;;;5053097;28;20229;-78
2022/10/31 01:13:56;;;;;;;2.70;1.60;;;;;;;;;;5052732;28;20713;-77
2022/10/31 01:16:25;;;;;;;3.83;1.57;;;;;;;;;;5051984;28;20216;-78
2022/10/31 01:18:52;;;;;;;2.17;1.67;;;;;;;;;;5053239;28;20292;-78
2022/10/31 01:21:22;;;;;;;5.97;1.63;;;;;;;;;;5038037;28;20209;-78
2022/10/31 01:23:49;;;;;;;4.40;1.60;;;;;;;;;;5051751;28;20252;-78
2022/10/31 01:26:17;;;;;;;1.53;1.43;;;;;;;;;;5051627;28;20736;-78
2022/10/31 01:28:47;;;;;;;1.40;1.30;;;;;;;;;;5052987;28;20582;-78
2022/10/31 01:31:16;;;;;;;3.67;1.30;;;;;;;;;;5050507;28;20316;-78
2022/10/31 01:33:43;;;;;;;3.97;1.60;;;;;;;;;;5052627;28;20640;-78
2022/10/31 01:36:16;;;;;;;3.07;1.40;;;;;;;;;;5052651;28;20209;-78
2022/10/31 01:38:42;;;;;;;2.33;1.80;;;;;;;;;;5052553;28;20454;-78
2022/10/31 01:41:11;;;;;;;2.90;2.13;;;;;;;;;;5052098;28;20251;-78
2022/10/31 01:43:47;;;;;;;1.83;1.60;;;;;;;;;;5052742;28;20209;-77
2022/10/31 01:46:17;;;;;;;1.50;1.40;;;;;;;;;;5051156;28;20237;-78
2022/10/31 01:48:44;;;;;;;1.43;1.33;;;;;;;;;;5052468;28;20680;-78
2022/10/31 01:51:13;;;;;;;1.60;1.50;;;;;;;;;;5067973;28;20682;-78
2022/10/31 01:53:40;;;;;;;2.43;1.43;;;;;;;;;;5052359;28;20262;-78
2022/10/31 01:56:08;;;;;;;3.50;1.70;;;;;;;;;;5051351;28;20201;-78
2022/10/31 01:58:35;;;;;;;4.80;1.80;;;;;;;;;;5052251;28;20209;-78
2022/10/31 02:01:03;;;;;;;3.27;1.33;;;;;;;;;;5051102;28;20672;-77
2022/10/31 02:03:32;;;;;;;1.70;1.27;;;;;;;;;;5052227;28;20241;-78
2022/10/31 02:05:59;;;;;;;1.93;1.57;;;;;;;;;;5052047;28;20202;-78
2022/10/31 02:08:28;;;;;;;4.50;1.93;;;;;;;;;;5052231;28;20636;-79
2022/10/31 02:10:56;;;;;;;2.10;1.50;;;;;;;;;;5051606;28;20220;-77
2022/10/31 02:13:23;;;;;;;2.80;1.90;;;;;;;;;;5052100;28;20210;-78
2022/10/31 02:15:53;;;;;;;2.60;2.40;;;;;;;;;;5052323;28;20205;-78
2022/10/31 02:18:20;;;;;;;2.30;1.90;;;;;;;;;;5052269;28;20206;-78
2022/10/31 02:20:58;;;;;;;1.70;1.60;;;;;;;;;;5051837;28;20209;-78
2022/10/31 02:24:08;;;;;;;2.13;1.93;;;;;;;;;;5051585;28;20209;-78
2022/10/31 02:27:00;;;;;;;2.83;1.60;;;;;;;;;;5039339;28;20208;-78
2022/10/31 02:29:53;;;;;;;1.70;1.60;;;;;;;;;;5029390;28;20260;-78
2022/10/31 02:32:26;;;;;;;2.10;1.53;;;;;;;;;;5051864;28;20237;-78
2022/10/31 02:34:58;;;;;;;7.67;2.97;;;;;;;;;;5051565;28;20205;-77
2022/10/31 02:37:28;;;;;;;3.53;1.77;;;;;;;;;;5051884;28;20201;-78
2022/10/31 02:39:59;;;;;;;2.30;1.40;;;;;;;;;;5051538;28;20205;-78
2022/10/31 02:42:33;;;;;;;1.93;1.60;;;;;;;;;;5050910;28;20684;-78
2022/10/31 02:45:05;;;;;;;7.67;1.63;;;;;;;;;;5050090;28;20209;-77
2022/10/31 02:47:36;;;;;;;2.53;1.63;;;;;;;;;;5051761;28;20561;-78
2022/10/31 02:50:07;;;;;;;3.50;1.60;;;;;;;;;;5051331;28;20255;-77
2022/10/31 02:52:35;;;;;;;4.40;1.90;;;;;;;;;;5050892;28;20229;-78
2022/10/31 02:55:10;;;;;;;2.83;1.43;;;;;;;;;;5049859;28;20275;-78
2022/10/31 02:57:39;;;;;;;2.63;1.33;;;;;;;;;;5051477;28;20197;-77
2022/10/31 03:00:08;;;;;;;3.00;1.70;;;;;;;;;;5033706;28;20205;-77
2022/10/31 03:02:46;;;;;;;2.33;2.13;;;;;;;;;;5050054;28;20198;-78
2022/10/31 03:05:42;;;;;;;3.27;2.30;;;;;;;;;;5049436;28;20593;-78
2022/10/31 03:08:25;;;;;;;3.10;2.37;;;;;;;;;;5048694;28;20201;-77
2022/10/31 03:10:55;;;;;;;4.67;1.63;;;;;;;;;;5051014;28;20742;-78
2022/10/31 03:13:28;;;;;;;1.93;1.53;;;;;;;;;;5051412;28;20240;-78
2022/10/31 03:16:02;;;;;;;1.80;1.67;;;;;;;;;;5048889;28;20240;-78
2022/10/31 03:18:34;;;;;;;2.63;1.50;;;;;;;;;;5049840;28;20209;-78
2022/10/31 03:21:05;;;;;;;1.60;1.50;;;;;;;;;;5049614;28;20206;-78
2022/10/31 03:23:33;;;;;;;6.90;1.90;;;;;;;;;;5048360;28;20209;-78
2022/10/31 03:26:02;;;;;;;3.53;1.97;;;;;;;;;;5046719;28;20256;-78
2022/10/31 03:28:31;;;;;;;1.97;1.60;;;;;;;;;;5049809;28;20197;-77
2022/10/31 03:30:59;;;;;;;1.60;1.50;;;;;;;;;;5050761;28;20708;-77
2022/10/31 03:33:28;;;;;;;2.20;1.80;;;;;;;;;;5050962;28;20654;-77
2022/10/31 03:35:58;;;;;;;1.57;1.47;;;;;;;;;;5050284;28;20612;-78
2022/10/31 03:38:26;;;;;;;2.20;1.73;;;;;;;;;;5049468;28;20733;-78
2022/10/31 03:40:54;;;;;;;2.67;2.47;;;;;;;;;;5049159;28;20635;-77
2022/10/31 03:43:24;;;;;;;3.50;2.03;;;;;;;;;;5049642;28;20266;-77
2022/10/31 03:45:51;;;;;;;5.30;1.97;;;;;;;;;;5047774;28;20213;-77
2022/10/31 03:48:19;;;;;;;2.37;1.60;;;;;;;;;;5029403;28;20197;-77
2022/10/31 03:50:52;;;;;;;1.83;1.30;;;;;;;;;;5030141;28;20226;-77
2022/10/31 03:53:25;;;;;;;1.77;1.63;;;;;;;;;;5046459;28;20708;-77
2022/10/31 03:55:56;;;;;;;1.77;1.60;;;;;;;;;;5049817;28;20198;-77
2022/10/31 03:58:26;;;;;;;2.83;1.90;;;;;;;;;;5050598;28;20212;-77
2022/10/31 04:00:56;;;;;;;1.90;1.73;;;;;;;;;;5049961;28;20694;-77
2022/10/31 04:03:25;;;;;;;4.27;1.70;;;;;;;;;;5050041;28;20236;-77
2022/10/31 04:05:54;;;;;;;2.40;1.50;;;;;;;;;;5050173;28;20242;-77
2022/10/31 04:08:27;;;;;;;1.43;1.33;;;;;;;;;;5048959;28;20216;-77
2022/10/31 04:10:55;;;;;;;2.53;1.70;;;;;;;;;;5049367;28;20197;-77
2022/10/31 04:13:25;;;;;;;2.57;1.83;;;;;;;;;;5048484;28;20244;-77
2022/10/31 04:15:53;;;;;;;1.73;1.50;;;;;;;;;;5050247;28;20201;-77
2022/10/31 04:18:20;;;;;;;2.20;1.60;;;;;;;;;;5050308;28;20216;-76
2022/10/31 04:20:49;;;;;;;1.30;1.20;;;;;;;;;;5048981;28;20205;-77
2022/10/31 04:23:20;;;;;;;2.93;1.50;;;;;;;;;;5050063;28;20209;-77
2022/10/31 04:25:48;;;;;;;2.83;1.63;;;;;;;;;;5049923;28;20206;-77
2022/10/31 04:28:15;;;;;;;2.00;1.53;;;;;;;;;;5050324;28;20213;-77
2022/10/31 04:30:42;;;;;;;3.03;2.03;;;;;;;;;;5035727;28;20752;-77
2022/10/31 04:33:09;;;;;;;1.83;1.60;;;;;;;;;;5049543;28;20243;-78
2022/10/31 04:35:37;;;;;;;2.33;1.93;;;;;;;;;;5047610;28;20216;-78
2022/10/31 04:38:04;;;;;;;3.13;1.57;;;;;;;;;;5049639;28;20198;-78
2022/10/31 04:40:31;;;;;;;2.53;2.30;;;;;;;;;;5049262;28;20212;-79
2022/10/31 04:42:59;;;;;;;2.87;1.63;;;;;;;;;;5050001;28;20232;-79
2022/10/31 04:45:26;;;;;;;5.10;2.00;;;;;;;;;;5048852;28;20205;-78
2022/10/31 04:47:54;;;;;;;2.37;1.70;;;;;;;;;;5050170;28;20266;-78
2022/10/31 04:50:20;;;;;;;1.83;1.70;;;;;;;;;;5049751;28;20209;-78
2022/10/31 04:52:47;;;;;;;4.93;3.53;;;;;;;;;;5049903;28;20224;-78
2022/10/31 04:55:15;;;;;;;2.40;1.87;;;;;;;;;;5049600;28;20591;-78
2022/10/31 04:57:42;;;;;;;5.13;1.73;;;;;;;;;;5049979;28;20264;-78
2022/10/31 05:00:11;;;;;;;3.03;1.97;;;;;;;;;;5049430;28;20212;-78
2022/10/31 05:02:44;;;;;;;4.27;2.23;;;;;;;;;;5050083;28;20226;-78
2022/10/31 05:05:11;;;;;;;4.37;2.30;;;;;;;;;;5049931;28;20211;-78
2022/10/31 05:07:40;;;;;;;2.93;1.90;;;;;;;;;;5052714;28;20247;-78
2022/10/31 05:10:09;;;;;;;5.20;2.47;;;;;;;;;;5052769;28;20296;-79
2022/10/31 05:12:36;;;;;;;4.70;2.00;;;;;;;;;;5039774;28;20220;-78
2022/10/31 05:15:03;;;;;;;3.33;2.23;;;;;;;;;;5052862;28;20208;-80
2022/10/31 05:17:33;;;;;;;1.97;1.77;;;;;;;;;;5052037;28;20202;-77
2022/10/31 05:20:00;;;;;;;5.60;2.50;;;;;;;;;;5052833;28;20254;-77
2022/10/31 05:22:27;;;;;;;7.80;4.10;;;;;;;;;;5051781;28;20278;-77
2022/10/31 05:24:53;;;;;;;11.27;6.47;;;;;;;;;;5046233;28;20208;-78
2022/10/31 05:27:20;;;;;;;8.73;5.57;;;;;;;;;;5052869;28;20217;-78
2022/10/31 05:29:47;;;;;;;7.27;3.70;;;;;;;;;;5053455;28;20205;-78
2022/10/31 05:32:14;;;;;;;4.77;2.33;;;;;;;;;;5050813;28;20227;-78
2022/10/31 05:34:42;;;;;;;4.73;3.67;;;;;;;;;;5051375;28;20197;-78
2022/10/31 05:37:09;;;;;;;6.13;4.60;;;;;;;;;;5052050;28;20273;-78
2022/10/31 05:39:36;;;;;;;5.53;4.30;;;;;;;;;;5051621;28;20761;-78
2022/10/31 05:42:03;;;;;;;6.83;2.93;;;;;;;;;;5049940;28;20205;-78
2022/10/31 05:44:30;;;;;;;3.47;2.77;;;;;;;;;;5051266;28;20205;-78
2022/10/31 05:46:57;;;;;;;3.03;2.33;;;;;;;;;;5051389;28;20262;-78
2022/10/31 05:49:24;;;;;;;3.47;2.03;;;;;;;;;;5050379;28;20210;-78
2022/10/31 05:51:52;;;;;;;4.70;2.23;;;;;;;;;;5051908;28;20251;-77
2022/10/31 05:54:19;;;;;;;6.90;3.50;;;;;;;;;;5052380;28;20616;-78
2022/10/31 05:56:45;;;;;;;4.80;2.33;;;;;;;;;;5052259;28;20263;-78
2022/10/31 05:59:12;;;;;;;3.20;2.10;;;;;;;;;;5038565;28;20205;-78
2022/10/31 06:01:39;;;;;;;4.87;2.83;;;;;;;;;;5052394;28;20202;-78
2022/10/31 06:04:06;;;;;;;2.50;2.27;;;;;;;;;;5052262;28;20226;-78
2022/10/31 06:06:33;;;;;;;4.23;2.67;;;;;;;;;;5051819;28;20205;-78
2022/10/31 06:09:01;;;;;;;4.67;2.37;;;;;;;;;;5052297;28;20216;-78
2022/10/31 06:11:27;;;;;;;4.13;2.77;;;;;;;;;;5052523;28;20204;-78
2022/10/31 06:13:54;;;;;;;6.67;2.80;;;;;;;;;;5051998;28;20776;-77
2022/10/31 06:16:22;;;;;;;10.60;5.00;;;;;;;;;;5051832;28;20213;-78
2022/10/31 06:18:49;;;;;;;12.03;7.40;;;;;;;;;;5051882;28;20707;-78
2022/10/31 06:21:16;;;;;;;18.13;9.17;;;;;;;;;;5051449;28;20620;-78
2022/10/31 06:23:43;;;;;;;8.60;6.10;;;;;;;;;;5051994;28;20202;-78
2022/10/31 06:26:11;;;;;;;8.63;4.90;;;;;;;;;;5051452;28;20204;-78
2022/10/31 06:28:37;;;;;;;8.77;5.50;;;;;;;;;;5052054;28;20213;-77
2022/10/31 06:31:04;;;;;;;5.63;3.67;;;;;;;;;;5051920;28;20275;-78
2022/10/31 06:33:31;;;;;;;5.43;4.00;;;;;;;;;;5051713;28;20750;-77
2022/10/31 06:35:58;;;;;;;4.80;3.17;;;;;;;;;;5051351;28;20208;-77
2022/10/31 06:38:26;;;;;;;4.50;3.13;;;;;;;;;;5051950;28;20215;-78
2022/10/31 06:40:53;;;;;;;3.57;2.67;;;;;;;;;;5051664;28;20216;-78
2022/10/31 06:43:21;;;;;;;5.90;4.13;;;;;;;;;;5051246;28;20232;-78
2022/10/31 06:45:48;;;;;;;3.57;2.80;;;;;;;;;;5051376;28;20263;-78
2022/10/31 06:48:15;;;;;;;4.47;3.03;;;;;;;;;;5051190;28;20210;-78
2022/10/31 06:50:42;;;;;;;4.17;2.77;;;;;;;;;;5051220;28;20202;-78
2022/10/31 06:53:09;;;;;;;4.23;2.60;;;;;;;;;;5051268;28;20233;-78
2022/10/31 06:55:36;;;;;;;4.07;2.60;;;;;;;;;;5051129;28;20202;-77
2022/10/31 06:58:02;;;;;;;5.67;2.97;;;;;;;;;;5051352;28;20198;-78
2022/10/31 07:00:31;;;;;;;7.83;3.53;;;;;;;;;;5051354;28;20201;-78
2022/10/31 07:02:59;;;;;;;5.77;3.53;;;;;;;;;;5050846;28;20207;-78
2022/10/31 07:05:26;;;;;;;4.63;2.60;;;;;;;;;;5050887;28;20283;-78
2022/10/31 07:07:54;;;;;;;3.93;2.33;;;;;;;;;;5051283;28;20252;-78
2022/10/31 07:10:21;;;;;;;8.20;3.40;;;;;;;;;;5051241;28;20263;-78
2022/10/31 07:12:48;;;;;;;4.93;3.23;;;;;;;;;;5037382;28;20239;-78
2022/10/31 07:15:15;;;;;;;3.90;2.40;;;;;;;;;;5050637;28;20202;-78
2022/10/31 07:17:43;;;;;;;7.70;2.40;;;;;;;;;;5050710;28;20632;-78
2022/10/31 07:20:10;;;;;;;3.43;2.43;;;;;;;;;;5051232;28;20198;-78
2022/10/31 07:22:37;;;;;;;6.80;2.93;;;;;;;;;;5050767;28;20220;-78
2022/10/31 07:25:05;;;;;;;3.77;2.70;;;;;;;;;;5050773;28;20217;-77
2022/10/31 07:27:36;;;;;;;2.83;2.47;;;;;;;;;;5051199;28;20271;-78
2022/10/31 07:30:03;;;;;;;3.00;2.70;;;;;;;;;;5049750;28;20202;-78
2022/10/31 07:32:38;;;;;;;9.70;2.90;;;;;;;;;;5050444;28;20209;-77
2022/10/31 07:35:07;;;;;;;6.17;2.83;;;;;;;;;;5050754;28;20212;-78
2022/10/31 07:37:34;;;;;;;5.63;2.87;;;;;;;;;;5050789;28;20213;-78
2022/10/31 07:40:01;;;;;;;6.67;2.73;;;;;;;;;;5050990;28;20636;-78
2022/10/31 07:42:28;;;;;;;4.40;2.97;;;;;;;;;;5049934;28;20677;-78
2022/10/31 07:44:55;;;;;;;4.50;3.10;;;;;;;;;;5050417;28;20198;-78
2022/10/31 07:47:21;;;;;;;4.70;2.80;;;;;;;;;;5050836;28;20202;-78
2022/10/31 07:49:48;;;;;;;4.63;2.97;;;;;;;;;;5050128;28;20213;-78
2022/10/31 07:52:16;;;;;;;2.67;2.43;;;;;;;;;;5050605;28;20591;-78
2022/10/31 07:54:43;;;;;;;3.33;2.93;;;;;;;;;;5050112;28;20232;-77
2022/10/31 07:57:10;;;;;;;2.70;2.50;;;;;;;;;;5050028;28;20194;-78
2022/10/31 07:59:36;;;;;;;3.63;3.33;;;;;;;;;;5050573;28;20206;-78
2022/10/31 08:02:03;;;;;;;5.53;3.03;;;;;;;;;;5050404;28;20198;-78
2022/10/31 08:04:30;;;;;;;3.30;2.43;;;;;;;;;;5050241;28;20669;-78
2022/10/31 08:06:57;;;;;;;4.60;3.97;;;;;;;;;;5049115;28;20314;-78
2022/10/31 08:09:25;;;;;;;8.83;3.37;;;;;;;;;;5035959;28;20209;-78
2022/10/31 08:11:52;;;;;;;4.00;3.23;;;;;;;;;;5049921;28;20685;-78
2022/10/31 08:14:18;;;;;;;3.20;2.90;;;;;;;;;;5050142;28;20237;-78
2022/10/31 08:16:45;;;;;;;3.93;2.73;;;;;;;;;;5050365;28;20205;-78
2022/10/31 08:19:12;;;;;;;7.63;3.40;;;;;;;;;;5050284;28;20208;-78
2022/10/31 08:21:39;;;;;;;3.50;2.93;;;;;;;;;;5050005;28;20275;-78
2022/10/31 08:24:06;;;;;;;3.60;3.30;;;;;;;;;;5049790;28;20206;-78
2022/10/31 08:26:34;;;;;;;3.67;3.33;;;;;;;;;;5050432;28;20647;-78
2022/10/31 08:29:01;;;;;;;3.50;3.20;;;;;;;;;;5050317;28;20201;-78
2022/10/31 08:31:28;;;;;;;4.57;3.50;;;;;;;;;;5050026;28;20563;-78
2022/10/31 08:33:55;;;;;;;4.03;3.10;;;;;;;;;;5049962;28;20230;-78
2022/10/31 08:36:22;;;;;;;4.40;3.63;;;;;;;;;;5049960;28;20202;-78
2022/10/31 08:38:49;;;;;;;3.83;3.20;;;;;;;;;;5049761;28;20205;-78
2022/10/31 08:41:16;;;;;;;5.50;2.80;;;;;;;;;;5050608;28;20591;-79
2022/10/31 08:43:44;;;;;;;4.07;2.80;;;;;;;;;;5054057;28;20198;-78
2022/10/31 08:46:10;;;;;;;2.53;2.33;;;;;;;;;;5053840;28;20677;-79
2022/10/31 08:48:37;;;;;;;5.57;3.37;;;;;;;;;;5053508;28;20210;-78
2022/10/31 08:51:04;;;;;;;4.97;2.93;;;;;;;;;;5076975;28;20205;-78
2022/10/31 08:53:31;;;;;;;4.43;3.30;;;;;;;;;;5043343;28;20647;-78
2022/10/31 08:55:58;;;;;;;6.60;3.00;;;;;;;;;;5053306;28;20218;-79
2022/10/31 08:58:25;;;;;;;4.43;2.70;;;;;;;;;;5053716;28;20212;-78
2022/10/31 09:00:56;;;;;;;3.77;2.80;;;;;;;;;;5053121;28;20229;-78
2022/10/31 09:03:25;;;;;;;6.40;2.83;;;;;;;;;;5053879;28;20236;-78
2022/10/31 09:05:56;;;;;;;5.60;2.80;;;;;;;;;;5053088;28;20202;-78
2022/10/31 09:08:23;;;;;;;3.13;2.60;;;;;;;;;;5053689;28;20260;-79
2022/10/31 09:10:50;;;;;;;5.73;3.00;;;;;;;;;;5053402;28;20201;-79
2022/10/31 09:13:18;;;;;;;4.40;3.13;;;;;;;;;;5053434;28;20222;-78
2022/10/31 09:15:46;;;;;;;4.47;3.40;;;;;;;;;;5053427;28;20206;-78
2022/10/31 09:18:16;;;;;;;3.40;3.10;;;;;;;;;;5053068;28;20263;-78
2022/10/31 09:20:44;;;;;;;3.87;3.00;;;;;;;;;;5053157;28;20615;-78
2022/10/31 09:23:12;;;;;;;3.57;3.17;;;;;;;;;;5053211;28;20205;-79
2022/10/31 09:25:39;;;;;;;9.27;3.30;;;;;;;;;;5052971;28;20215;-79
2022/10/31 09:28:08;;;;;;;2.63;2.43;;;;;;;;;;5053041;28;20762;-78
2022/10/31 09:30:36;;;;;;;3.33;2.77;;;;;;;;;;5053347;28;20201;-78
2022/10/31 09:33:04;;;;;;;5.27;3.30;;;;;;;;;;5052466;28;20615;-79
2022/10/31 09:35:33;;;;;;;3.07;2.77;;;;;;;;;;5052960;28;20301;-78
2022/10/31 09:38:01;;;;;;;3.13;2.57;;;;;;;;;;5052726;28;20205;-78
2022/10/31 09:40:32;;;;;;;3.27;2.73;;;;;;;;;;5053012;28;20233;-79
2022/10/31 09:43:06;;;;;;;5.43;2.73;;;;;;;;;;5052978;28;20202;-78
2022/10/31 09:45:37;;;;;;;4.37;3.57;;;;;;;;;;5052199;28;20206;-79
2022/10/31 09:48:16;;;;;;;3.77;3.13;;;;;;;;;;5053161;28;20627;-79
2022/10/31 09:50:47;;;;;;;4.00;3.00;;;;;;;;;;5038955;28;20201;-79
2022/10/31 09:53:21;;;;;;;3.67;2.67;;;;;;;;;;5052202;28;20225;-79
2022/10/31 09:55:50;;;;;;;4.03;2.80;;;;;;;;;;5052377;28;20213;-79
2022/10/31 09:58:20;;;;;;;2.83;2.63;;;;;;;;;;5052793;28;20252;-79
2022/10/31 10:00:48;;;;;;;3.23;2.87;;;;;;;;;;5052782;28;20632;-79
2022/10/31 10:03:20;;;;;;;3.43;3.00;;;;;;;;;;5052527;28;20295;-79
2022/10/31 10:05:52;;;;;;;4.43;3.03;;;;;;;;;;5052590;28;20224;-79
2022/10/31 10:08:21;;;;;;;9.13;2.57;;;;;;;;;;5052396;28;20213;-79
2022/10/31 10:10:51;;;;;;;3.40;2.77;;;;;;;;;;5052084;28;20210;-79
2022/10/31 10:13:30;;;;;;;3.30;3.00;;;;;;;;;;5052216;28;20213;-79
2022/10/31 10:16:04;;;;;;;2.53;2.33;;;;;;;;;;5052249;28;20205;-79
2022/10/31 10:18:39;;;;;;;7.47;2.50;;;;;;;;;;5052112;28;20679;-79
2022/10/31 10:21:21;;;;;;;4.80;2.90;;;;;;;;;;5052039;28;20292;-79
2022/10/31 10:23:58;;;;;;;2.83;2.43;;;;;;;;;;5052540;28;20229;-79
2022/10/31 10:26:30;;;;;;;2.87;2.57;;;;;;;;;;5038667;28;20202;-79
2022/10/31 10:28:59;;;;;;;4.57;2.90;;;;;;;;;;5051837;28;20198;-80
2022/10/31 10:31:29;;;;;;;4.83;2.17;;;;;;;;;;5051582;28;20695;-80
2022/10/31 10:34:03;;;;;;;3.63;2.60;;;;;;;;;;5051885;28;20222;-79
2022/10/31 10:36:38;;;;;;;3.00;2.70;;;;;;;;;;5052136;28;20221;-80
2022/10/31 10:39:08;;;;;;;2.60;2.40;;;;;;;;;;5051956;28;20207;-79
2022/10/31 10:41:35;;;;;;;5.77;2.50;;;;;;;;;;5052159;28;20202;-79
2022/10/31 10:44:02;;;;;;;3.13;2.30;;;;;;;;;;5051820;28;20279;-79
2022/10/31 10:49:27;;;;;;;3.97;2.50;;;;;;;;;;5051362;28;20347;-80
2022/10/31 10:51:59;;;;;;;2.87;2.13;;;;;;;;;;5051834;28;20213;-79
2022/10/31 10:54:46;;;;;;;2.90;2.40;;;;;;;;;;5051424;28;20265;-79
2022/10/31 10:57:23;;;;;;;3.43;2.43;;;;;;;;;;5051773;28;20201;-80
2022/10/31 10:59:50;;;;;;;6.23;3.27;;;;;;;;;;5051347;28;20201;-79
2022/10/31 11:02:19;;;;;;;3.03;2.33;;;;;;;;;;5051434;28;20202;-79
2022/10/31 11:04:48;;;;;;;3.73;2.33;;;;;;;;;;5050294;28;20257;-79
2022/10/31 11:07:16;;;;;;;4.87;2.73;;;;;;;;;;5051485;28;20692;-79
2022/10/31 11:09:43;;;;;;;3.53;2.90;;;;;;;;;;5050953;28;20633;-79
2022/10/31 11:12:15;;;;;;;4.23;2.43;;;;;;;;;;5051366;28;20206;-80
2022/10/31 11:14:46;;;;;;;6.60;2.67;;;;;;;;;;5051273;28;20234;-79
2022/10/31 11:17:22;;;;;;;2.93;2.20;;;;;;;;;;5050462;28;20209;-79
2022/10/31 11:19:49;;;;;;;3.20;2.70;;;;;;;;;;5051195;28;20202;-79
2022/10/31 11:22:18;;;;;;;4.10;2.80;;;;;;;;;;5051576;28;20236;-79
2022/10/31 11:24:45;;;;;;;3.07;2.40;;;;;;;;;;5050909;28;20280;-79
2022/10/31 11:27:15;;;;;;;2.80;2.20;;;;;;;;;;5051000;28;20216;-79
2022/10/31 11:29:42;;;;;;;4.23;2.53;;;;;;;;;;5050579;28;20631;-79
2022/10/31 11:32:19;;;;;;;3.80;2.27;;;;;;;;;;5051665;28;20202;-79
2022/10/31 11:34:50;;;;;;;1.93;1.73;;;;;;;;;;5050437;28;20229;-79
2022/10/31 11:37:21;;;;;;;3.63;2.20;;;;;;;;;;5051158;28;20205;-80
2022/10/31 11:39:53;;;;;;;1.93;1.83;;;;;;;;;;5051227;28;20198;-79
2022/10/31 11:42:21;;;;;;;3.60;2.13;;;;;;;;;;5050740;28;20267;-79
2022/10/31 11:44:48;;;;;;;2.97;2.00;;;;;;;;;;5050755;28;20206;-80
2022/10/31 11:47:16;;;;;;;2.63;2.43;;;;;;;;;;5050775;28;20208;-79
2022/10/31 11:49:45;;;;;;;3.87;2.20;;;;;;;;;;5050743;28;20213;-80
2022/10/31 11:52:16;;;;;;;2.80;2.07;;;;;;;;;;5051128;28;20212;-79
2022/10/31 11:54:48;;;;;;;2.47;2.03;;;;;;;;;;5050329;28;20229;-79
2022/10/31 11:57:28;;;;;;;2.87;2.47;;;;;;;;;;5050898;28;20205;-79
2022/10/31 11:59:58;;;;;;;3.47;2.27;;;;;;;;;;5051217;28;20197;-79
2022/10/31 12:02:25;;;;;;;2.60;2.17;;;;;;;;;;5051022;28;20210;-80
2022/10/31 12:04:58;;;;;;;3.47;2.07;;;;;;;;;;5050299;28;20240;-79
2022/10/31 12:07:25;;;;;;;5.00;2.50;;;;;;;;;;5050416;28;20209;-79
2022/10/31 12:09:53;;;;;;;2.90;2.17;;;;;;;;;;5050230;28;20209;-79
2022/10/31 12:12:55;;;;;;;2.40;2.00;;;;;;;;;;5050550;28;20649;-79
2022/10/31 12:15:31;;;;;;;2.70;2.00;;;;;;;;;;5007041;28;20230;-80
2022/10/31 12:18:26;;;;;;;2.23;1.93;;;;;;;;;;5041460;28;20263;-79
2022/10/31 12:21:01;;;;;;;2.25;2.00;;;;;;;;;;5054267;28;20212;-80
2022/10/31 12:23:38;;;;;;;3.58;2.88;;;;;;;;;;5054858;28;20691;-80
2022/10/31 12:26:14;;;;;;;3.03;2.25;;;;;;;;;;5053822;28;20243;-80
2022/10/31 12:29:01;;;;;;;2.90;1.93;;;;;;;;;;5054325;28;20204;-79
2022/10/31 12:31:35;;;;;;;2.70;2.10;;;;;;;;;;5038253;28;20197;-80
2022/10/31 12:34:19;;;;;;;2.43;1.77;;;;;;;;;;5054348;28;20210;-79
2022/10/31 12:36:51;;;;;;;4.77;2.30;;;;;;;;;;5041511;28;20202;-79
2022/10/31 12:39:25;;;;;;;5.30;2.30;;;;;;;;;;5054380;28;20209;-80
2022/10/31 12:41:58;;;;;;;2.20;1.80;;;;;;;;;;5054209;28;20289;-80
2022/10/31 12:44:41;;;;;;;1.93;1.70;;;;;;;;;;5054129;28;20205;-79
2022/10/31 12:47:29;;;;;;;1.73;1.60;;;;;;;;;;5054060;28;20206;-79
2022/10/31 12:50:02;;;;;;;2.30;1.67;;;;;;;;;;5054339;28;20205;-79
2022/10/31 12:52:42;;;;;;;3.23;1.70;;;;;;;;;;5053931;28;20205;-80
2022/10/31 12:55:22;;;;;;;2.07;1.87;;;;;;;;;;5052952;28;20229;-79
2022/10/31 12:57:53;;;;;;;4.47;1.80;;;;;;;;;;5054257;28;20289;-80
2022/10/31 13:00:21;;;;;;;3.10;2.13;;;;;;;;;;5053941;28;20206;-79
2022/10/31 13:02:52;;;;;;;3.40;2.10;;;;;;;;;;5053741;28;20202;-79
2022/10/31 13:05:22;;;;;;;2.37;2.10;;;;;;;;;;5053349;28;20738;-79
2022/10/31 13:07:52;;;;;;;6.07;1.97;;;;;;;;;;5053861;28;20224;-79
2022/10/31 13:10:22;;;;;;;2.60;2.10;;;;;;;;;;5053986;28;20209;-80
2022/10/31 13:12:53;;;;;;;2.10;1.90;;;;;;;;;;5039944;28;20267;-80
2022/10/31 13:15:23;;;;;;;2.67;2.13;;;;;;;;;;5053161;28;20230;-80
2022/10/31 13:17:52;;;;;;;2.87;1.60;;;;;;;;;;5053646;28;20202;-80
2022/10/31 13:20:23;;;;;;;1.97;1.83;;;;;;;;;;5053097;28;20209;-79
2022/10/31 13:22:53;;;;;;;3.67;1.77;;;;;;;;;;5053569;28;20194;-79
2022/10/31 13:25:24;;;;;;;3.33;1.93;;;;;;;;;;5053040;28;20213;-80
2022/10/31 13:27:55;;;;;;;2.23;1.87;;;;;;;;;;5052550;28;20198;-80
2022/10/31 13:30:23;;;;;;;1.53;1.43;;;;;;;;;;5052918;28;20630;-79
2022/10/31 13:32:52;;;;;;;2.93;2.10;;;;;;;;;;5052987;28;20604;-79
2022/10/31 13:35:25;;;;;;;1.60;1.50;;;;;;;;;;5052994;28;20230;-79
2022/10/31 13:38:00;;;;;;;2.70;2.00;;;;;;;;;;5052867;28;20695;-79
2022/10/31 13:40:35;;;;;;;2.50;2.30;;;;;;;;;;5053015;28;20636;-79
2022/10/31 13:43:11;;;;;;;2.47;2.20;;;;;;;;;;5052442;28;20216;-79
2022/10/31 13:45:49;;;;;;;2.90;2.67;;;;;;;;;;5039234;28;20202;-79
2022/10/31 13:48:30;;;;;;;2.30;2.10;;;;;;;;;;5053065;28;20213;-79
2022/10/31 13:50:59;;;;;;;2.90;2.43;;;;;;;;;;5052781;28;20711;-79
2022/10/31 13:53:40;;;;;;;2.47;2.30;;;;;;;;;;5052539;28;20244;-79
2022/10/31 13:56:16;;;;;;;3.77;2.20;;;;;;;;;;5052824;28;20267;-79
2022/10/31 13:58:58;;;;;;;5.27;2.33;;;;;;;;;;5052382;28;20276;-79
2022/10/31 14:01:25;;;;;;;2.60;2.23;;;;;;;;;;5052509;28;20213;-80
2022/10/31 14:03:59;;;;;;;2.37;2.00;;;;;;;;;;5052545;28;20230;-79
2022/10/31 14:06:36;;;;;;;1.97;1.87;;;;;;;;;;5052433;28;20212;-79
2022/10/31 14:09:04;;;;;;;2.60;2.00;;;;;;;;;;5052300;28;20214;-79
2022/10/31 14:11:31;;;;;;;3.47;2.20;;;;;;;;;;5052291;28;20202;-79
2022/10/31 14:13:59;;;;;;;2.23;2.07;;;;;;;;;;5052132;28;20205;-79
2022/10/31 14:16:28;;;;;;;2.70;2.10;;;;;;;;;;5052016;28;20283;-79
2022/10/31 14:19:01;;;;;;;2.00;1.87;;;;;;;;;;5052361;28;20213;-79
2022/10/31 14:21:29;;;;;;;2.00;1.90;;;;;;;;;;5052559;28;20710;-79
2022/10/31 14:23:57;;;;;;;3.20;2.17;;;;;;;;;;5052522;28;20638;-79
2022/10/31 14:26:37;;;;;;;2.37;2.17;;;;;;;;;;5052095;28;20206;-79
2022/10/31 14:29:24;;;;;;;3.70;2.77;;;;;;;;;;5051930;28;20292;-79
2022/10/31 14:32:10;;;;;;;3.23;1.93;;;;;;;;;;5052258;28;20194;-79
2022/10/31 14:34:39;;;;;;;6.47;3.57;;;;;;;;;;5051594;28;20206;-79
2022/10/31 14:37:28;;;;;;;2.83;2.37;;;;;;;;;;5051570;28;20677;-79
2022/10/31 14:40:18;;;;;;;5.33;2.03;;;;;;;;;;5051957;28;20194;-79
2022/10/31 14:42:57;;;;;;;3.90;1.90;;;;;;;;;;5051894;28;20216;-79
2022/10/31 14:45:34;;;;;;;1.90;1.63;;;;;;;;;;5052399;28;20198;-79
2022/10/31 14:48:21;;;;;;;1.90;1.80;;;;;;;;;;5051757;28;20247;-79
2022/10/31 14:50:50;;;;;;;2.63;1.83;;;;;;;;;;5038539;28;20252;-80
2022/10/31 14:53:22;;;;;;;3.27;2.00;;;;;;;;;;5051769;28;20218;-79
2022/10/31 14:55:50;;;;;;;6.70;2.27;;;;;;;;;;5037240;28;20224;-79
2022/10/31 14:58:20;;;;;;;2.40;1.97;;;;;;;;;;5051448;28;20210;-79
2022/10/31 15:00:49;;;;;;;2.70;2.47;;;;;;;;;;5051254;28;20657;-79
2022/10/31 15:03:17;;;;;;;2.50;2.30;;;;;;;;;;5051644;28;20241;-79